createdAt,value
2023-04-07T00:00:24.403Z,2116.00
2023-04-07T00:01:24.394Z,2104.00
2023-04-07T00:02:24.560Z,2102.00
2023-04-07T00:03:24.619Z,2098.00
2023-04-07T00:04:24.633Z,2111.00
2023-04-07T00:05:24.455Z,2087.00
2023-04-07T00:06:24.440Z,2091.00
2023-04-07T00:07:24.449Z,2081.00
2023-04-07T00:08:24.456Z,2072.00
2023-04-07T00:09:24.475Z,2083.00
2023-04-07T00:10:24.503Z,2087.00
2023-04-07T00:11:24.491Z,2089.00
2023-04-07T00:12:24.501Z,2084.00
2023-04-07T00:13:24.508Z,2084.00
2023-04-07T00:14:24.498Z,2085.00
2023-04-07T00:15:24.502Z,2089.00
2023-04-07T00:16:24.512Z,2090.00
2023-04-07T00:17:24.512Z,2085.00
2023-04-07T00:18:24.498Z,2079.00
2023-04-07T00:19:24.525Z,2083.00
2023-04-07T00:20:24.601Z,2070.00
2023-04-07T00:21:24.614Z,2070.00
2023-04-07T00:22:24.629Z,2067.00
2023-04-07T00:23:24.616Z,2069.00
2023-04-07T00:24:33.776Z,2076.00
2023-04-07T00:25:25.666Z,2077.00
2023-04-07T00:26:24.642Z,2075.00
2023-04-07T00:27:24.632Z,2069.00
2023-04-07T00:28:24.635Z,2079.00
2023-04-07T00:29:24.620Z,2087.00
2023-04-07T00:30:24.612Z,2089.00
2023-04-07T00:31:24.667Z,2080.00
2023-04-07T00:32:24.629Z,2063.00
2023-04-07T00:33:24.606Z,2079.00
2023-04-07T00:34:24.597Z,2056.00
2023-04-07T00:35:24.629Z,2080.00
2023-04-07T00:36:24.634Z,2058.00
2023-04-07T00:37:24.666Z,2073.00
2023-04-07T00:38:24.703Z,2077.00
2023-04-07T00:39:24.780Z,2067.00
2023-04-07T00:40:24.800Z,2073.00
2023-04-07T00:41:24.810Z,2056.00
2023-04-07T00:42:24.862Z,2059.00
2023-04-07T00:43:24.881Z,2045.00
2023-04-07T00:44:24.859Z,2061.00
2023-04-07T00:45:24.889Z,2051.00
2023-04-07T00:46:24.953Z,2057.00
2023-04-07T00:47:24.896Z,2054.00
2023-04-07T00:48:24.883Z,2068.00
2023-04-07T00:49:24.871Z,2041.00
2023-04-07T00:50:24.896Z,2040.00
2023-04-07T00:51:24.887Z,2054.00
2023-04-07T00:52:24.879Z,2049.00
2023-04-07T00:53:24.886Z,2051.00
2023-04-07T00:54:24.947Z,2052.00
2023-04-07T00:55:24.913Z,2052.00
2023-04-07T00:56:24.886Z,2053.00
2023-04-07T00:57:24.880Z,2056.00
2023-04-07T00:58:24.877Z,2048.00
2023-04-07T00:59:24.873Z,2043.00
2023-04-07T01:00:24.888Z,2043.00
2023-04-07T01:01:24.927Z,2049.00
2023-04-07T01:02:25.025Z,2053.00
2023-04-07T01:03:25.181Z,2042.00
2023-04-07T01:04:24.950Z,2045.00
2023-04-07T01:05:24.895Z,2042.00
2023-04-07T01:06:24.879Z,2034.00
2023-04-07T01:07:24.888Z,2041.00
2023-04-07T01:08:24.894Z,2040.00
2023-04-07T01:09:24.986Z,2022.00
2023-04-07T01:10:24.928Z,2032.00
2023-04-07T01:11:24.905Z,2035.00
2023-04-07T01:12:24.905Z,2017.00
2023-04-07T01:13:24.899Z,2037.00
2023-04-07T01:14:24.896Z,2038.00
2023-04-07T01:15:24.912Z,2030.00
2023-04-07T01:16:24.954Z,2024.00
2023-04-07T01:17:24.919Z,2044.00
2023-04-07T01:18:24.894Z,2017.00
2023-04-07T01:19:24.884Z,2015.00
2023-04-07T01:20:24.910Z,2011.00
2023-04-07T01:21:24.891Z,2026.00
2023-04-07T01:22:24.912Z,2024.00
2023-04-07T01:23:24.882Z,2029.00
2023-04-07T01:24:24.888Z,2015.00
2023-04-07T01:25:24.890Z,2021.00
2023-04-07T01:26:24.892Z,2021.00
2023-04-07T01:27:24.894Z,2011.00
2023-04-07T01:28:24.879Z,2024.00
2023-04-07T01:29:24.877Z,2026.00
2023-04-07T01:30:24.888Z,2002.00
2023-04-07T01:31:24.912Z,2016.00
2023-04-07T01:32:24.915Z,2010.00
2023-04-07T01:33:24.877Z,2004.00
2023-04-07T01:34:24.913Z,2012.00
2023-04-07T01:35:24.895Z,2021.00
2023-04-07T01:36:24.891Z,2004.00
2023-04-07T01:37:24.907Z,2019.00
2023-04-07T01:38:24.878Z,1999.00
2023-04-07T01:39:24.877Z,2006.00
2023-04-07T01:40:24.891Z,2005.00
2023-04-07T01:41:24.905Z,1996.00
2023-04-07T01:42:24.914Z,1990.00
2023-04-07T01:43:24.914Z,1993.00
2023-04-07T01:44:24.934Z,2014.00
2023-04-07T01:45:24.970Z,2003.00
2023-04-07T01:46:24.963Z,1993.00
2023-04-07T01:47:25.039Z,2012.00
2023-04-07T01:48:24.967Z,1998.00
2023-04-07T01:49:24.966Z,2003.00
2023-04-07T01:50:24.983Z,1996.00
2023-04-07T01:51:24.992Z,2003.00
2023-04-07T01:52:25.002Z,1997.00
2023-04-07T01:53:25.005Z,1997.00
2023-04-07T01:54:25.032Z,1987.00
2023-04-07T01:55:25.055Z,2001.00
2023-04-07T01:56:25.056Z,1992.00
2023-04-07T01:57:25.070Z,1976.00
2023-04-07T01:58:25.065Z,1980.00
2023-04-07T01:59:25.084Z,1983.00
2023-04-07T02:00:25.088Z,1999.00
2023-04-07T02:01:25.168Z,1986.00
2023-04-07T02:02:25.185Z,1981.00
2023-04-07T02:03:25.330Z,1979.00
2023-04-07T02:04:25.138Z,1984.00
2023-04-07T02:05:25.144Z,1988.00
2023-04-07T02:06:25.158Z,1977.00
2023-04-07T02:07:25.158Z,1995.00
2023-04-07T02:08:25.168Z,1965.00
2023-04-07T02:09:25.194Z,1969.00
2023-04-07T02:10:25.188Z,1969.00
2023-04-07T02:11:25.196Z,1975.00
2023-04-07T02:12:25.191Z,1974.00
2023-04-07T02:13:25.193Z,1964.00
2023-04-07T02:14:25.205Z,1967.00
2023-04-07T02:15:25.210Z,1964.00
2023-04-07T02:16:25.307Z,1962.00
2023-04-07T02:17:25.207Z,1946.00
2023-04-07T02:18:25.220Z,1966.00
2023-04-07T02:19:25.232Z,1952.00
2023-04-07T02:20:25.211Z,1970.00
2023-04-07T02:21:25.222Z,1966.00
2023-04-07T02:22:25.249Z,1968.00
2023-04-07T02:23:25.244Z,1957.00
2023-04-07T02:24:25.272Z,1962.00
2023-04-07T02:25:25.267Z,1968.00
2023-04-07T02:26:25.280Z,1963.00
2023-04-07T02:27:25.282Z,1958.00
2023-04-07T02:28:25.309Z,1958.00
2023-04-07T02:29:25.306Z,1963.00
2023-04-07T02:30:25.331Z,1937.00
2023-04-07T02:31:25.378Z,1955.00
2023-04-07T02:32:25.359Z,1949.00
2023-04-07T02:33:25.341Z,1942.00
2023-04-07T02:34:25.360Z,1951.00
2023-04-07T02:35:25.349Z,1940.00
2023-04-07T02:36:25.375Z,1953.00
2023-04-07T02:37:25.350Z,1941.00
2023-04-07T02:38:25.366Z,1934.00
2023-04-07T02:39:25.402Z,1954.00
2023-04-07T02:40:25.427Z,1946.00
2023-04-07T02:41:25.442Z,1932.00
2023-04-07T02:42:25.432Z,1945.00
2023-04-07T02:43:25.519Z,1936.00
2023-04-07T02:44:25.458Z,1925.00
2023-04-07T02:45:25.468Z,1914.00
2023-04-07T02:46:25.606Z,1875.00
2023-04-07T02:47:25.539Z,1857.00
2023-04-07T02:48:25.518Z,1841.00
2023-04-07T02:49:25.549Z,1770.00
2023-04-07T02:50:25.536Z,1747.00
2023-04-07T02:51:25.547Z,1661.00
2023-04-07T02:52:25.576Z,1645.00
2023-04-07T02:53:25.551Z,1600.00
2023-04-07T02:54:25.555Z,1561.00
2023-04-07T02:55:25.549Z,1512.00
2023-04-07T02:56:25.557Z,1458.00
2023-04-07T02:57:25.553Z,1402.00
2023-04-07T02:58:25.550Z,1365.00
2023-04-07T02:59:25.552Z,1309.00
2023-04-07T03:00:25.566Z,1263.00
2023-04-07T03:01:25.661Z,1209.00
2023-04-07T03:02:25.761Z,1175.00
2023-04-07T03:03:25.723Z,1126.00
2023-04-07T03:04:25.749Z,1044.00
2023-04-07T03:05:25.571Z,988.00
2023-04-07T03:06:25.595Z,932.00
2023-04-07T03:07:25.575Z,892.00
2023-04-07T03:08:25.585Z,822.00
2023-04-07T03:09:25.586Z,790.00
2023-04-07T03:10:25.589Z,757.00
2023-04-07T03:11:25.595Z,742.00
2023-04-07T03:12:25.585Z,737.00
2023-04-07T03:13:25.620Z,730.00
2023-04-07T03:14:25.584Z,729.00
2023-04-07T03:15:25.586Z,713.00
2023-04-07T03:16:25.624Z,710.00
2023-04-07T03:17:25.631Z,683.00
2023-04-07T03:18:25.605Z,688.00
2023-04-07T03:19:25.588Z,679.00
2023-04-07T03:20:25.621Z,660.00
2023-04-07T03:21:25.674Z,663.00
2023-04-07T03:22:25.701Z,658.00
2023-04-07T03:23:25.758Z,662.00
2023-04-07T03:24:25.794Z,662.00
2023-04-07T03:25:25.835Z,664.00
2023-04-07T03:26:25.883Z,666.00
2023-04-07T03:27:25.930Z,677.00
2023-04-07T03:28:25.968Z,679.00
2023-04-07T03:29:26.016Z,670.00
2023-04-07T03:30:26.072Z,688.00
2023-04-07T03:31:26.199Z,673.00
2023-04-07T03:32:26.163Z,678.00
2023-04-07T03:33:26.192Z,673.00
2023-04-07T03:34:26.250Z,681.00
2023-04-07T03:35:26.274Z,698.00
2023-04-07T03:36:26.382Z,698.00
2023-04-07T03:37:26.360Z,697.00
2023-04-07T03:38:26.413Z,704.00
2023-04-07T03:39:26.460Z,695.00
2023-04-07T03:40:26.510Z,699.00
2023-04-07T03:41:26.576Z,685.00
2023-04-07T03:42:26.603Z,680.00
2023-04-07T03:43:26.653Z,665.00
2023-04-07T03:44:26.703Z,675.00
2023-04-07T03:45:26.746Z,673.00
2023-04-07T03:46:26.851Z,665.00
2023-04-07T03:47:26.913Z,669.00
2023-04-07T03:48:28.743Z,672.00
2023-04-07T03:49:26.932Z,664.00
2023-04-07T03:50:26.970Z,691.00
2023-04-07T03:51:27.022Z,690.00
2023-04-07T03:52:27.055Z,713.00
2023-04-07T03:53:27.100Z,705.00
2023-04-07T03:54:27.148Z,717.00
2023-04-07T03:55:27.202Z,712.00
2023-04-07T03:56:28.849Z,709.00
2023-04-07T03:57:27.308Z,748.00
2023-04-07T03:58:27.354Z,736.00
2023-04-07T03:59:27.409Z,739.00
2023-04-07T04:00:27.454Z,762.00
2023-04-07T04:01:27.561Z,740.00
2023-04-07T04:02:27.650Z,747.00
2023-04-07T04:03:27.689Z,728.00
2023-04-07T04:04:27.677Z,727.00
2023-04-07T04:05:27.716Z,743.00
2023-04-07T04:06:27.803Z,744.00
2023-04-07T04:07:27.814Z,733.00
2023-04-07T04:08:27.892Z,750.00
2023-04-07T04:09:27.919Z,746.00
2023-04-07T04:10:27.956Z,734.00
2023-04-07T04:11:28.006Z,746.00
2023-04-07T04:12:28.072Z,766.00
2023-04-07T04:13:28.125Z,761.00
2023-04-07T04:14:28.188Z,770.00
2023-04-07T04:15:28.228Z,805.00
2023-04-07T04:16:28.488Z,803.00
2023-04-07T04:17:28.433Z,803.00
2023-04-07T04:18:28.389Z,805.00
2023-04-07T04:19:28.448Z,772.00
2023-04-07T04:20:28.503Z,785.00
2023-04-07T04:21:28.565Z,765.00
2023-04-07T04:22:28.624Z,731.00
2023-04-07T04:23:28.672Z,739.00
2023-04-07T04:24:28.733Z,711.00
2023-04-07T04:25:28.797Z,712.00
2023-04-07T04:26:28.849Z,718.00
2023-04-07T04:27:28.908Z,717.00
2023-04-07T04:28:28.951Z,720.00
2023-04-07T04:29:29.833Z,690.00
2023-04-07T04:30:29.067Z,698.00
2023-04-07T04:31:29.147Z,695.00
2023-04-07T04:32:29.210Z,697.00
2023-04-07T04:33:29.231Z,693.00
2023-04-07T04:34:29.253Z,710.00
2023-04-07T04:35:29.298Z,722.00
2023-04-07T04:36:29.378Z,719.00
2023-04-07T04:37:29.418Z,733.00
2023-04-07T04:38:29.473Z,745.00
2023-04-07T04:39:29.521Z,744.00
2023-04-07T04:40:29.587Z,753.00
2023-04-07T04:41:29.635Z,760.00
2023-04-07T04:42:29.714Z,760.00
2023-04-07T04:43:29.755Z,774.00
2023-04-07T04:44:29.816Z,775.00
2023-04-07T04:45:29.869Z,758.00
2023-04-07T04:46:29.976Z,750.00
2023-04-07T04:47:29.988Z,752.00
2023-04-07T04:48:30.053Z,747.00
2023-04-07T04:49:30.112Z,749.00
2023-04-07T04:50:30.170Z,742.00
2023-04-07T04:51:30.219Z,770.00
2023-04-07T04:52:30.283Z,748.00
2023-04-07T04:53:30.342Z,732.00
2023-04-07T04:54:30.376Z,744.00
2023-04-07T04:55:30.420Z,721.00
2023-04-07T04:56:30.483Z,707.00
2023-04-07T04:57:30.549Z,718.00
2023-04-07T04:58:30.614Z,713.00
2023-04-07T04:59:30.703Z,719.00
2023-04-07T05:00:30.745Z,734.00
2023-04-07T05:01:33.244Z,726.00
2023-04-07T05:02:30.942Z,722.00
2023-04-07T05:03:31.003Z,704.00
2023-04-07T05:04:31.013Z,727.00
2023-04-07T05:05:30.836Z,689.00
2023-04-07T05:06:30.846Z,700.00
2023-04-07T05:07:30.858Z,692.00
2023-04-07T05:08:30.862Z,672.00
2023-04-07T05:09:30.886Z,685.00
2023-04-07T05:10:30.890Z,671.00
2023-04-07T05:11:30.899Z,677.00
2023-04-07T05:12:30.918Z,673.00
2023-04-07T05:13:30.912Z,666.00
2023-04-07T05:14:30.936Z,662.00
2023-04-07T05:15:30.930Z,654.00
2023-04-07T05:16:30.991Z,649.00
2023-04-07T05:17:30.959Z,639.00
2023-04-07T05:18:30.946Z,638.00
2023-04-07T05:19:30.967Z,640.00
2023-04-07T05:20:30.995Z,643.00
2023-04-07T05:21:30.990Z,635.00
2023-04-07T05:22:31.011Z,630.00
2023-04-07T05:23:31.011Z,629.00
2023-04-07T05:24:31.038Z,627.00
2023-04-07T05:25:31.040Z,623.00
2023-04-07T05:26:31.053Z,626.00
2023-04-07T05:27:31.062Z,633.00
2023-04-07T05:28:31.070Z,643.00
2023-04-07T05:29:31.085Z,649.00
2023-04-07T05:30:31.125Z,653.00
2023-04-07T05:31:31.146Z,662.00
2023-04-07T05:32:31.169Z,691.00
2023-04-07T05:33:31.161Z,715.00
2023-04-07T05:34:31.184Z,717.00
2023-04-07T05:35:31.229Z,758.00
2023-04-07T05:36:31.260Z,801.00
2023-04-07T05:37:31.299Z,814.00
2023-04-07T05:38:31.316Z,828.00
2023-04-07T05:39:31.391Z,881.00
2023-04-07T05:40:31.481Z,913.00
2023-04-07T05:41:31.545Z,907.00
2023-04-07T05:42:31.639Z,919.00
2023-04-07T05:43:31.725Z,945.00
2023-04-07T05:44:31.774Z,972.00
2023-04-07T05:45:31.871Z,981.00
2023-04-07T05:46:31.937Z,973.00
2023-04-07T05:47:32.096Z,991.00
2023-04-07T05:48:32.136Z,1006.00
2023-04-07T05:49:32.219Z,1022.00
2023-04-07T05:50:32.344Z,1029.00
2023-04-07T05:51:32.437Z,1062.00
2023-04-07T05:52:32.504Z,1063.00
2023-04-07T05:53:32.528Z,1069.00
2023-04-07T05:54:32.564Z,1092.00
2023-04-07T05:55:32.610Z,1128.00
2023-04-07T05:56:32.637Z,1179.00
2023-04-07T05:57:32.688Z,1189.00
2023-04-07T05:58:32.722Z,1181.00
2023-04-07T05:59:32.749Z,1171.00
2023-04-07T06:00:32.820Z,1176.00
2023-04-07T06:01:32.986Z,1159.00
2023-04-07T06:02:33.186Z,1166.00
2023-04-07T06:03:33.265Z,1158.00
2023-04-07T06:04:33.205Z,1156.00
2023-04-07T06:05:33.338Z,1155.00
2023-04-07T06:06:33.405Z,1145.00
2023-04-07T06:07:33.512Z,1141.00
2023-04-07T06:08:33.590Z,1119.00
2023-04-07T06:09:33.740Z,1107.00
2023-04-07T06:10:33.685Z,1096.00
2023-04-07T06:11:33.738Z,1096.00
2023-04-07T06:12:33.859Z,1097.00
2023-04-07T06:13:33.953Z,1104.00
2023-04-07T06:14:34.044Z,1114.00
2023-04-07T06:15:34.136Z,1110.00
2023-04-07T06:16:34.197Z,1111.00
2023-04-07T06:17:34.289Z,1113.00
2023-04-07T06:18:34.249Z,1111.00
2023-04-07T06:19:34.301Z,1114.00
2023-04-07T06:20:34.319Z,1120.00
2023-04-07T06:21:34.365Z,1117.00
2023-04-07T06:22:34.384Z,1121.00
2023-04-07T06:23:34.442Z,1114.00
2023-04-07T06:24:34.467Z,1108.00
2023-04-07T06:25:34.498Z,1101.00
2023-04-07T06:26:34.614Z,1109.00
2023-04-07T06:27:34.715Z,1107.00
2023-04-07T06:28:34.826Z,1111.00
2023-04-07T06:29:34.925Z,1109.00
2023-04-07T06:30:35.031Z,1113.00
2023-04-07T06:31:35.093Z,1117.00
2023-04-07T06:32:35.232Z,1118.00
2023-04-07T06:33:35.355Z,1122.00
2023-04-07T06:34:35.416Z,1122.00
2023-04-07T06:35:35.545Z,1122.00
2023-04-07T06:36:35.738Z,1115.00
2023-04-07T06:37:35.756Z,1109.00
2023-04-07T06:38:35.884Z,1088.00
2023-04-07T06:39:36.000Z,1058.00
2023-04-07T06:40:36.105Z,1040.00
2023-04-07T06:41:36.193Z,1020.00
2023-04-07T06:42:36.410Z,1010.00
2023-04-07T06:43:36.414Z,984.00
2023-04-07T06:44:36.515Z,966.00
2023-04-07T06:45:36.631Z,944.00
2023-04-07T06:46:36.819Z,949.00
2023-04-07T06:47:36.929Z,925.00
2023-04-07T06:48:36.935Z,929.00
2023-04-07T06:49:37.272Z,920.00
2023-04-07T06:50:37.072Z,917.00
2023-04-07T06:51:37.105Z,919.00
2023-04-07T06:52:37.153Z,898.00
2023-04-07T06:53:37.281Z,864.00
2023-04-07T06:54:37.242Z,832.00
2023-04-07T06:55:37.269Z,816.00
2023-04-07T06:56:37.331Z,795.00
2023-04-07T06:57:37.403Z,785.00
2023-04-07T06:58:37.605Z,767.00
2023-04-07T06:59:37.504Z,752.00
2023-04-07T07:00:37.592Z,734.00
2023-04-07T07:01:37.890Z,734.00
2023-04-07T07:02:37.810Z,722.00
2023-04-07T07:03:37.997Z,723.00
2023-04-07T07:04:37.874Z,704.00
2023-04-07T07:05:37.937Z,701.00
2023-04-07T07:06:37.976Z,688.00
2023-04-07T07:07:38.047Z,682.00
2023-04-07T07:08:38.096Z,667.00
2023-04-07T07:09:38.132Z,658.00
2023-04-07T07:10:38.205Z,650.00
2023-04-07T07:11:38.265Z,634.00
2023-04-07T07:12:38.411Z,616.00
2023-04-07T07:13:38.439Z,595.00
2023-04-07T07:14:38.454Z,575.00
2023-04-07T07:15:38.536Z,563.00
2023-04-07T07:16:38.554Z,549.00
2023-04-07T07:17:38.623Z,534.00
2023-04-07T07:18:38.630Z,514.00
2023-04-07T07:19:38.690Z,500.00
2023-04-07T07:20:38.782Z,500.00
2023-04-07T07:21:38.886Z,499.00
2023-04-07T07:22:39.009Z,500.00
2023-04-07T07:23:39.090Z,499.00
2023-04-07T07:24:39.166Z,499.00
2023-04-07T07:25:39.276Z,499.00
2023-04-07T07:26:39.377Z,500.00
2023-04-07T07:27:39.444Z,500.00
2023-04-07T07:28:39.530Z,500.00
2023-04-07T07:29:39.658Z,500.00
2023-04-07T07:30:39.770Z,500.00
2023-04-07T07:31:39.892Z,500.00
2023-04-07T07:32:39.995Z,500.00
2023-04-07T07:33:40.266Z,500.00
2023-04-07T07:34:40.189Z,500.00
2023-04-07T07:35:40.401Z,500.00
2023-04-07T07:36:40.401Z,500.00
2023-04-07T07:37:40.526Z,501.00
2023-04-07T07:38:40.618Z,500.00
2023-04-07T07:39:40.745Z,500.00
2023-04-07T07:40:40.848Z,500.00
2023-04-07T07:41:40.913Z,500.00
2023-04-07T07:42:40.985Z,500.00
2023-04-07T07:43:41.101Z,500.00
2023-04-07T07:44:41.131Z,500.00
2023-04-07T07:45:41.235Z,500.00
2023-04-07T07:46:41.399Z,500.00
2023-04-07T07:47:41.412Z,500.00
2023-04-07T07:48:41.498Z,500.00
2023-04-07T07:49:41.543Z,501.00
2023-04-07T07:50:41.671Z,501.00
2023-04-07T07:51:41.748Z,500.00
2023-04-07T07:52:41.879Z,501.00
2023-04-07T07:53:41.953Z,500.00
2023-04-07T07:54:42.048Z,501.00
2023-04-07T07:55:42.163Z,500.00
2023-04-07T07:56:42.181Z,495.00
2023-04-07T07:57:42.221Z,490.00
2023-04-07T07:58:42.263Z,487.00
2023-04-07T07:59:42.304Z,485.00
2023-04-07T08:00:42.355Z,481.00
2023-04-07T08:01:42.406Z,502.00
2023-04-07T08:02:42.476Z,501.00
2023-04-07T08:03:42.668Z,500.00
2023-04-07T08:04:42.555Z,502.00
2023-04-07T08:05:42.586Z,503.00
2023-04-07T08:06:42.588Z,505.00
2023-04-07T08:07:42.659Z,502.00
2023-04-07T08:08:42.725Z,500.00
2023-04-07T08:09:42.759Z,503.00
2023-04-07T08:10:42.800Z,504.00
2023-04-07T08:11:42.887Z,500.00
2023-04-07T08:12:42.941Z,500.00
2023-04-07T08:13:43.006Z,500.00
2023-04-07T08:14:43.088Z,501.00
2023-04-07T08:15:43.340Z,500.00
2023-04-07T08:16:43.382Z,501.00
2023-04-07T08:17:43.411Z,501.00
2023-04-07T08:18:43.514Z,504.00
2023-04-07T08:19:43.619Z,500.00
2023-04-07T08:20:43.683Z,501.00
2023-04-07T08:21:43.799Z,501.00
2023-04-07T08:22:43.894Z,501.00
2023-04-07T08:23:43.964Z,503.00
2023-04-07T08:24:44.046Z,500.00
2023-04-07T08:25:44.123Z,500.00
2023-04-07T08:26:44.235Z,500.00
2023-04-07T08:27:44.342Z,500.00
2023-04-07T08:28:44.420Z,506.00
2023-04-07T08:29:44.545Z,506.00
2023-04-07T08:30:44.660Z,509.00
2023-04-07T08:31:44.795Z,515.00
2023-04-07T08:32:44.889Z,514.00
2023-04-07T08:33:45.027Z,517.00
2023-04-07T08:34:45.073Z,507.00
2023-04-07T08:35:45.195Z,502.00
2023-04-07T08:36:45.271Z,500.00
2023-04-07T08:37:45.385Z,507.00
2023-04-07T08:38:45.497Z,502.00
2023-04-07T08:39:45.570Z,506.00
2023-04-07T08:40:45.704Z,504.00
2023-04-07T08:41:45.873Z,506.00
2023-04-07T08:42:45.924Z,501.00
2023-04-07T08:43:46.154Z,503.00
2023-04-07T08:44:46.144Z,506.00
2023-04-07T08:45:46.218Z,521.00
2023-04-07T08:46:46.296Z,535.00
2023-04-07T08:47:46.483Z,549.00
2023-04-07T08:48:46.401Z,573.00
2023-04-07T08:49:46.441Z,583.00
2023-04-07T08:50:46.504Z,602.00
2023-04-07T08:51:46.609Z,618.00
2023-04-07T08:52:46.681Z,658.00
2023-04-07T08:53:47.016Z,686.00
2023-04-07T08:54:46.816Z,722.00
2023-04-07T08:55:46.928Z,837.00
2023-04-07T08:56:46.974Z,894.00
2023-04-07T08:57:47.046Z,967.00
2023-04-07T08:58:47.106Z,1062.00
2023-04-07T08:59:47.160Z,1141.00
2023-04-07T09:00:47.221Z,1206.00
2023-04-07T09:01:47.365Z,1303.00
2023-04-07T09:02:47.458Z,1363.00
2023-04-07T09:03:47.640Z,1451.00
2023-04-07T09:04:47.434Z,1521.00
2023-04-07T09:05:47.483Z,1602.00
2023-04-07T09:06:47.538Z,1657.00
2023-04-07T09:07:47.602Z,1719.00
2023-04-07T09:08:47.633Z,1782.00
2023-04-07T09:09:47.695Z,1853.00
2023-04-07T09:10:47.730Z,1936.00
2023-04-07T09:11:47.784Z,1953.00
2023-04-07T09:12:47.829Z,2033.00
2023-04-07T09:13:48.019Z,2036.00
2023-04-07T09:14:47.873Z,2050.00
2023-04-07T09:15:47.858Z,2084.00
2023-04-07T09:16:47.958Z,2165.00
2023-04-07T09:17:47.944Z,2282.00
2023-04-07T09:18:47.914Z,2325.00
2023-04-07T09:19:47.962Z,2367.00
2023-04-07T09:20:47.932Z,2407.00
2023-04-07T09:21:47.946Z,2456.00
2023-04-07T09:22:47.965Z,2487.00
2023-04-07T09:23:48.253Z,2563.00
2023-04-07T09:24:47.968Z,2586.00
2023-04-07T09:25:47.974Z,2644.00
2023-04-07T09:26:48.007Z,2672.00
2023-04-07T09:27:48.035Z,2699.00
2023-04-07T09:28:48.036Z,2753.00
2023-04-07T09:29:48.078Z,2786.00
2023-04-07T09:30:48.044Z,2820.00
2023-04-07T09:31:48.146Z,2851.00
2023-04-07T09:32:48.087Z,2895.00
2023-04-07T09:33:48.324Z,2931.00
2023-04-07T09:34:48.082Z,2962.00
2023-04-07T09:35:48.087Z,2988.00
2023-04-07T09:36:48.113Z,3001.00
2023-04-07T09:37:48.073Z,3009.00
2023-04-07T09:38:48.085Z,3048.00
2023-04-07T09:39:48.093Z,3079.00
2023-04-07T09:40:48.106Z,3098.00
2023-04-07T09:41:48.246Z,3111.00
2023-04-07T09:42:48.149Z,3143.00
2023-04-07T09:43:48.366Z,3158.00
2023-04-07T09:44:48.143Z,3174.00
2023-04-07T09:45:48.168Z,3192.00
2023-04-07T09:46:48.179Z,3214.00
2023-04-07T09:47:48.261Z,3226.00
2023-04-07T09:48:48.259Z,3248.00
2023-04-07T09:49:48.326Z,3252.00
2023-04-07T09:50:48.375Z,3264.00
2023-04-07T09:51:48.478Z,3274.00
2023-04-07T09:52:48.529Z,3287.00
2023-04-07T09:53:48.835Z,3317.00
2023-04-07T09:54:48.663Z,3299.00
2023-04-07T09:55:48.800Z,3331.00
2023-04-07T09:56:50.628Z,3340.00
2023-04-07T09:57:48.860Z,3361.00
2023-04-07T09:58:48.959Z,3354.00
2023-04-07T09:59:49.012Z,3374.00
2023-04-07T10:00:49.054Z,3395.00
2023-04-07T10:01:49.138Z,3396.00
2023-04-07T10:02:49.140Z,3398.00
2023-04-07T10:03:49.261Z,3408.00
2023-04-07T10:04:49.154Z,3425.00
2023-04-07T10:05:49.128Z,3460.00
2023-04-07T10:06:49.090Z,3459.00
2023-04-07T10:07:49.111Z,3477.00
2023-04-07T10:08:49.323Z,3493.00
2023-04-07T10:09:49.105Z,3484.00
2023-04-07T10:10:49.113Z,3498.00
2023-04-07T10:11:49.160Z,3520.00
2023-04-07T10:12:49.219Z,3531.00
2023-04-07T10:13:49.895Z,3528.00
2023-04-07T10:14:49.328Z,3534.00
2023-04-07T10:15:49.402Z,3549.00
2023-04-07T10:16:49.479Z,3557.00
2023-04-07T10:17:49.542Z,3560.00
2023-04-07T10:18:49.514Z,3555.00
2023-04-07T10:19:49.576Z,3581.00
2023-04-07T10:20:49.636Z,3581.00
2023-04-07T10:21:49.660Z,3594.00
2023-04-07T10:22:49.701Z,3584.00
2023-04-07T10:23:50.149Z,3598.00
2023-04-07T10:24:49.724Z,3599.00
2023-04-07T10:25:49.720Z,3602.00
2023-04-07T10:26:49.715Z,3609.00
2023-04-07T10:27:49.705Z,3625.00
2023-04-07T10:28:49.706Z,3628.00
2023-04-07T10:29:49.747Z,3642.00
2023-04-07T10:30:49.765Z,3643.00
2023-04-07T10:31:49.677Z,3642.00
2023-04-07T10:32:49.740Z,3645.00
2023-04-07T10:33:49.894Z,3642.00
2023-04-07T10:34:49.674Z,3660.00
2023-04-07T10:35:49.719Z,3659.00
2023-04-07T10:36:49.657Z,3676.00
2023-04-07T10:37:50.152Z,3662.00
2023-04-07T10:38:49.665Z,3671.00
2023-04-07T10:39:49.719Z,3668.00
2023-04-07T10:40:49.781Z,3671.00
2023-04-07T10:41:49.777Z,3668.00
2023-04-07T10:42:49.813Z,3680.00
2023-04-07T10:43:50.354Z,3670.00
2023-04-07T10:44:49.928Z,3685.00
2023-04-07T10:45:49.997Z,3668.00
2023-04-07T10:46:49.973Z,3676.00
2023-04-07T10:47:50.095Z,3682.00
2023-04-07T10:48:50.040Z,3678.00
2023-04-07T10:49:50.064Z,3684.00
2023-04-07T10:50:50.093Z,3673.00
2023-04-07T10:51:50.093Z,3674.00
2023-04-07T10:52:50.088Z,3675.00
2023-04-07T10:53:50.215Z,3682.00
2023-04-07T10:54:50.078Z,3687.00
2023-04-07T10:55:50.059Z,3691.00
2023-04-07T10:56:50.087Z,3692.00
2023-04-07T10:57:50.038Z,3690.00
2023-04-07T10:58:50.037Z,3691.00
2023-04-07T10:59:50.038Z,3695.00
2023-04-07T11:00:50.055Z,3694.00
2023-04-07T11:01:50.076Z,3696.00
2023-04-07T11:02:50.253Z,3690.00
2023-04-07T11:03:50.265Z,3690.00
2023-04-07T11:04:50.059Z,3692.00
2023-04-07T11:05:49.975Z,3702.00
2023-04-07T11:06:49.949Z,3699.00
2023-04-07T11:07:49.954Z,3717.00
2023-04-07T11:08:49.927Z,3691.00
2023-04-07T11:09:49.915Z,3694.00
2023-04-07T11:10:49.922Z,3698.00
2023-04-07T11:11:49.925Z,3717.00
2023-04-07T11:12:49.886Z,3722.00
2023-04-07T11:13:50.245Z,3721.00
2023-04-07T11:14:49.902Z,3726.00
2023-04-07T11:15:49.929Z,3709.00
2023-04-07T11:16:49.845Z,3716.00
2023-04-07T11:17:49.867Z,3717.00
2023-04-07T11:18:49.826Z,3704.00
2023-04-07T11:19:49.827Z,3701.00
2023-04-07T11:20:49.820Z,3712.00
2023-04-07T11:21:49.809Z,3710.00
2023-04-07T11:22:49.785Z,3722.00
2023-04-07T11:23:49.975Z,3720.00
2023-04-07T11:24:49.829Z,3709.00
2023-04-07T11:25:49.880Z,3704.00
2023-04-07T11:26:50.768Z,3716.00
2023-04-07T11:27:49.922Z,3718.00
2023-04-07T11:28:49.941Z,3717.00
2023-04-07T11:29:49.982Z,3693.00
2023-04-07T11:30:50.051Z,3698.00
2023-04-07T11:31:50.134Z,3692.00
2023-04-07T11:32:50.090Z,3696.00
2023-04-07T11:33:50.446Z,3690.00
2023-04-07T11:34:50.129Z,3691.00
2023-04-07T11:35:50.162Z,3698.00
2023-04-07T11:36:50.181Z,3688.00
2023-04-07T11:37:50.173Z,3684.00
2023-04-07T11:38:50.214Z,3677.00
2023-04-07T11:39:50.287Z,3673.00
2023-04-07T11:40:50.275Z,3678.00
2023-04-07T11:41:50.320Z,3668.00
2023-04-07T11:42:50.273Z,3672.00
2023-04-07T11:43:50.404Z,3666.00
2023-04-07T11:44:50.322Z,3658.00
2023-04-07T11:45:50.330Z,3661.00
2023-04-07T11:46:50.382Z,3669.00
2023-04-07T11:47:50.345Z,3662.00
2023-04-07T11:48:50.354Z,3666.00
2023-04-07T11:49:50.357Z,3663.00
2023-04-07T11:50:50.429Z,3656.00
2023-04-07T11:51:50.404Z,3660.00
2023-04-07T11:52:50.409Z,3662.00
2023-04-07T11:53:50.652Z,3656.00
2023-04-07T11:54:50.467Z,3658.00
2023-04-07T11:55:50.468Z,3650.00
2023-04-07T11:56:50.439Z,3643.00
2023-04-07T11:57:50.439Z,3647.00
2023-04-07T11:58:50.496Z,3635.00
2023-04-07T11:59:50.466Z,3650.00
2023-04-07T12:00:50.493Z,3651.00
2023-04-07T12:01:50.511Z,3641.00
2023-04-07T12:02:50.618Z,3642.00
2023-04-07T12:03:50.768Z,3642.00
2023-04-07T12:04:50.609Z,3647.00
2023-04-07T12:05:50.504Z,3641.00
2023-04-07T12:06:50.500Z,3626.00
2023-04-07T12:07:50.536Z,3632.00
2023-04-07T12:08:50.512Z,3630.00
2023-04-07T12:09:50.514Z,3637.00
2023-04-07T12:10:50.530Z,3633.00
2023-04-07T12:11:50.528Z,3636.00
2023-04-07T12:12:50.572Z,3625.00
2023-04-07T12:13:50.741Z,3609.00
2023-04-07T12:14:50.537Z,3606.00